createdAt,value
2023-05-23T00:00:10.470Z,0.00
2023-05-23T00:01:10.415Z,0.00
2023-05-23T00:02:10.468Z,0.00
2023-05-23T00:03:10.566Z,0.00
2023-05-23T00:04:10.469Z,0.00
2023-05-23T00:05:10.373Z,0.00
2023-05-23T00:06:10.351Z,0.00
2023-05-23T00:07:10.352Z,0.00
2023-05-23T00:08:10.351Z,0.00
2023-05-23T00:09:10.343Z,0.00
2023-05-23T00:10:10.317Z,0.00
2023-05-23T00:11:09.784Z,0.00
2023-05-23T00:12:10.344Z,0.00
2023-05-23T00:13:10.304Z,0.00
2023-05-23T00:14:10.311Z,0.00
2023-05-23T00:15:10.310Z,0.00
2023-05-23T00:16:10.219Z,0.00
2023-05-23T00:17:10.237Z,0.00
2023-05-23T00:18:10.209Z,0.00
2023-05-23T00:19:10.221Z,0.00
2023-05-23T00:20:10.182Z,0.00
2023-05-23T00:21:10.152Z,0.00
2023-05-23T00:22:10.128Z,0.00
2023-05-23T00:23:10.124Z,0.00
2023-05-23T00:24:10.123Z,0.00
2023-05-23T00:25:10.096Z,0.00
2023-05-23T00:26:10.094Z,0.00
2023-05-23T00:27:10.082Z,0.00
2023-05-23T00:28:10.065Z,0.00
2023-05-23T00:29:10.039Z,0.00
2023-05-23T00:30:10.032Z,0.00
2023-05-23T00:31:10.057Z,0.00
2023-05-23T00:32:10.020Z,0.00
2023-05-23T00:33:09.980Z,0.00
2023-05-23T00:34:09.972Z,0.00
2023-05-23T00:35:09.955Z,0.00
2023-05-23T00:36:09.933Z,0.00
2023-05-23T00:37:09.930Z,0.00
2023-05-23T00:38:09.922Z,0.00
2023-05-23T00:39:09.899Z,0.00
2023-05-23T00:40:09.895Z,0.00
2023-05-23T00:41:09.869Z,0.00
2023-05-23T00:42:09.870Z,0.00
2023-05-23T00:43:09.854Z,0.00
2023-05-23T00:44:09.830Z,0.00
2023-05-23T00:45:09.353Z,0.00
2023-05-23T00:46:09.858Z,0.00
2023-05-23T00:47:09.828Z,0.00
2023-05-23T00:48:09.786Z,0.00
2023-05-23T00:49:09.766Z,0.00
2023-05-23T00:50:09.763Z,0.00
2023-05-23T00:51:09.770Z,0.00
2023-05-23T00:52:09.721Z,0.00
2023-05-23T00:53:09.725Z,0.00
2023-05-23T00:54:09.697Z,0.00
2023-05-23T00:55:09.679Z,0.00
2023-05-23T00:56:09.683Z,0.00
2023-05-23T00:57:09.652Z,0.00
2023-05-23T00:58:09.635Z,0.00
2023-05-23T00:59:09.627Z,0.00
2023-05-23T01:00:09.605Z,0.00
2023-05-23T01:01:09.619Z,0.00
2023-05-23T01:02:09.625Z,0.00
2023-05-23T01:03:09.676Z,0.00
2023-05-23T01:04:09.683Z,0.00
2023-05-23T01:05:09.556Z,0.00
2023-05-23T01:06:09.528Z,0.00
2023-05-23T01:07:09.512Z,0.00
2023-05-23T01:08:09.502Z,0.00
2023-05-23T01:09:09.498Z,0.00
2023-05-23T01:10:09.478Z,0.00
2023-05-23T01:11:09.453Z,0.00
2023-05-23T01:12:09.446Z,0.00
2023-05-23T01:13:09.425Z,0.00
2023-05-23T01:14:09.430Z,0.00
2023-05-23T01:15:09.417Z,0.00
2023-05-23T01:16:09.409Z,0.00
2023-05-23T01:17:08.811Z,0.00
2023-05-23T01:18:09.386Z,0.00
2023-05-23T01:19:09.398Z,0.00
2023-05-23T01:20:09.337Z,0.00
2023-05-23T01:21:09.320Z,0.00
2023-05-23T01:22:09.302Z,0.00
2023-05-23T01:23:09.337Z,0.00
2023-05-23T01:24:09.283Z,0.00
2023-05-23T01:25:09.260Z,0.00
2023-05-23T01:26:09.261Z,0.00
2023-05-23T01:27:09.243Z,0.00
2023-05-23T01:28:09.235Z,0.00
2023-05-23T01:29:09.219Z,0.00
2023-05-23T01:30:09.183Z,0.00
2023-05-23T01:31:09.187Z,0.00
2023-05-23T01:32:09.299Z,0.00
2023-05-23T01:33:09.288Z,0.00
2023-05-23T01:34:09.128Z,0.00
2023-05-23T01:35:09.110Z,0.00
2023-05-23T01:36:09.116Z,0.00
2023-05-23T01:37:09.098Z,0.00
2023-05-23T01:38:09.100Z,0.00
2023-05-23T01:39:09.061Z,0.00
2023-05-23T01:40:09.044Z,0.00
2023-05-23T01:41:09.040Z,0.00
2023-05-23T01:42:09.044Z,0.00
2023-05-23T01:43:09.020Z,0.00
2023-05-23T01:44:09.019Z,0.00
2023-05-23T01:45:08.975Z,0.00
2023-05-23T01:46:09.014Z,0.00
2023-05-23T01:47:08.970Z,0.00
2023-05-23T01:48:08.980Z,0.00
2023-05-23T01:49:08.927Z,0.00
2023-05-23T01:50:08.907Z,0.00
2023-05-23T01:51:08.896Z,0.00
2023-05-23T01:52:08.906Z,0.00
2023-05-23T01:53:08.881Z,0.00
2023-05-23T01:54:08.864Z,0.00
2023-05-23T01:55:08.877Z,0.00
2023-05-23T01:56:08.820Z,0.00
2023-05-23T01:57:08.816Z,0.00
2023-05-23T01:58:08.809Z,0.00
2023-05-23T01:59:08.790Z,0.00
2023-05-23T02:00:08.801Z,0.00
2023-05-23T02:01:08.850Z,0.00
2023-05-23T02:02:08.788Z,0.00
2023-05-23T02:03:08.804Z,0.00
2023-05-23T02:04:08.725Z,0.00
2023-05-23T02:05:08.732Z,0.00
2023-05-23T02:06:08.709Z,0.00
2023-05-23T02:07:08.729Z,0.00
2023-05-23T02:08:08.698Z,0.00
2023-05-23T02:09:08.649Z,0.00
2023-05-23T02:10:08.647Z,0.00
2023-05-23T02:11:08.641Z,0.00
2023-05-23T02:12:08.617Z,0.00
2023-05-23T02:13:08.603Z,0.00
2023-05-23T02:14:08.584Z,0.00
2023-05-23T02:15:08.611Z,0.00
2023-05-23T02:16:08.582Z,0.00
2023-05-23T02:17:08.601Z,0.00
2023-05-23T02:18:08.631Z,0.00
2023-05-23T02:19:08.698Z,0.00
2023-05-23T02:20:08.539Z,0.00
2023-05-23T02:21:08.506Z,0.00
2023-05-23T02:22:08.489Z,0.00
2023-05-23T02:23:08.490Z,0.00
2023-05-23T02:24:08.468Z,0.00
2023-05-23T02:25:08.461Z,0.00
2023-05-23T02:26:08.433Z,0.00
2023-05-23T02:27:08.428Z,0.00
2023-05-23T02:28:08.410Z,0.00
2023-05-23T02:29:08.412Z,0.00
2023-05-23T02:30:07.913Z,0.00
2023-05-23T02:31:08.437Z,0.00
2023-05-23T02:32:08.390Z,0.00
2023-05-23T02:33:08.405Z,0.00
2023-05-23T02:34:08.337Z,0.00
2023-05-23T02:35:08.338Z,0.00
2023-05-23T02:36:08.281Z,0.00
2023-05-23T02:37:08.281Z,0.00
2023-05-23T02:38:08.280Z,0.00
2023-05-23T02:39:08.284Z,0.00
2023-05-23T02:40:08.240Z,0.00
2023-05-23T02:41:08.226Z,0.00
2023-05-23T02:42:08.226Z,0.00
2023-05-23T02:43:08.193Z,0.00
2023-05-23T02:44:08.203Z,0.00
2023-05-23T02:45:08.159Z,0.00
2023-05-23T02:46:08.177Z,0.00
2023-05-23T02:47:08.149Z,0.00
2023-05-23T02:48:08.318Z,0.00
2023-05-23T02:49:08.121Z,0.00
2023-05-23T02:50:08.105Z,0.00
2023-05-23T02:51:08.089Z,0.00
2023-05-23T02:52:08.070Z,0.00
2023-05-23T02:53:08.096Z,0.00
2023-05-23T02:54:08.048Z,0.00
2023-05-23T02:55:08.050Z,4.00
2023-05-23T02:56:08.021Z,4.00
2023-05-23T02:57:08.008Z,4.00
2023-05-23T02:58:07.995Z,4.00
2023-05-23T02:59:07.977Z,4.00
2023-05-23T03:00:07.958Z,4.00
2023-05-23T03:01:08.291Z,0.00
2023-05-23T03:02:08.094Z,4.00
2023-05-23T03:03:08.024Z,4.00
2023-05-23T03:04:07.963Z,4.00
2023-05-23T03:05:07.972Z,4.00
2023-05-23T03:06:07.950Z,8.00
2023-05-23T03:07:11.643Z,4.00
2023-05-23T03:08:08.909Z,8.00
2023-05-23T03:09:06.081Z,8.00
2023-05-23T03:10:06.085Z,8.00
2023-05-23T03:11:06.021Z,12.00
2023-05-23T03:12:06.024Z,12.00
2023-05-23T03:13:06.109Z,12.00
2023-05-23T03:14:06.111Z,16.00
2023-05-23T03:15:07.434Z,16.00
2023-05-23T03:16:06.037Z,16.00
2023-05-23T03:17:05.933Z,20.00
2023-05-23T03:18:05.997Z,24.00
2023-05-23T03:19:05.997Z,28.00
2023-05-23T03:20:07.896Z,32.00
2023-05-23T03:21:05.895Z,36.00
2023-05-23T03:22:07.831Z,40.00
2023-05-23T03:23:07.823Z,48.00
2023-05-23T03:24:07.791Z,56.00
2023-05-23T03:25:05.924Z,60.00
2023-05-23T03:26:05.819Z,72.00
2023-05-23T03:27:05.987Z,76.00
2023-05-23T03:28:07.242Z,84.00
2023-05-23T03:29:06.004Z,96.00
2023-05-23T03:30:07.793Z,108.00
2023-05-23T03:31:07.217Z,120.00
2023-05-23T03:32:07.779Z,132.00
2023-05-23T03:33:05.799Z,152.00
2023-05-23T03:34:07.164Z,168.00
2023-05-23T03:35:07.159Z,188.00
2023-05-23T03:36:07.121Z,204.00
2023-05-23T03:37:07.138Z,232.00
2023-05-23T03:38:07.125Z,252.00
2023-05-23T03:39:05.862Z,276.00
2023-05-23T03:40:07.082Z,300.00
2023-05-23T03:41:05.622Z,332.00
2023-05-23T03:42:07.049Z,364.00
2023-05-23T03:43:07.072Z,396.00
2023-05-23T03:44:05.625Z,428.00
2023-05-23T03:45:07.013Z,468.00
2023-05-23T03:46:05.618Z,504.00
2023-05-23T03:47:05.544Z,544.00
2023-05-23T03:48:07.531Z,588.00
2023-05-23T03:49:05.635Z,636.00
2023-05-23T03:50:05.620Z,680.00
2023-05-23T03:51:05.645Z,728.00
2023-05-23T03:52:05.553Z,776.00
2023-05-23T03:53:06.915Z,824.00
2023-05-23T03:54:05.568Z,880.00
2023-05-23T03:55:05.605Z,928.00
2023-05-23T03:56:07.365Z,976.00
2023-05-23T03:57:05.580Z,1032.00
2023-05-23T03:58:06.837Z,1092.00
2023-05-23T03:59:06.821Z,1156.00
2023-05-23T04:00:05.372Z,1212.00
2023-05-23T04:01:06.778Z,1260.00
2023-05-23T04:02:05.354Z,1328.00
2023-05-23T04:03:05.564Z,1404.00
2023-05-23T04:04:07.303Z,1476.00
2023-05-23T04:05:05.403Z,1540.00
2023-05-23T04:06:07.214Z,1612.00
2023-05-23T04:07:05.252Z,1680.00
2023-05-23T04:08:05.388Z,1744.00
2023-05-23T04:09:06.695Z,1832.00
2023-05-23T04:10:05.273Z,1948.00
2023-05-23T04:11:05.346Z,2032.00
2023-05-23T04:12:06.653Z,2056.00
2023-05-23T04:13:05.402Z,2144.00
2023-05-23T04:14:06.604Z,2252.00
2023-05-23T04:15:06.612Z,2288.00
2023-05-23T04:16:05.426Z,2352.00
2023-05-23T04:17:06.598Z,2428.00
2023-05-23T04:18:05.249Z,2492.00
2023-05-23T04:19:06.650Z,2596.00
2023-05-23T04:20:06.590Z,2624.00
2023-05-23T04:21:05.158Z,2680.00
2023-05-23T04:22:06.885Z,2744.00
2023-05-23T04:23:06.862Z,2888.00
2023-05-23T04:24:06.860Z,2960.00
2023-05-23T04:25:06.894Z,2992.00
2023-05-23T04:26:06.795Z,3116.00
2023-05-23T04:27:06.801Z,3108.00
2023-05-23T04:28:06.780Z,3276.00
2023-05-23T04:29:06.848Z,3380.00
2023-05-23T04:30:06.758Z,3448.00
2023-05-23T04:31:06.814Z,3500.00
2023-05-23T04:32:06.733Z,3564.00
2023-05-23T04:33:06.742Z,3620.00
2023-05-23T04:34:06.705Z,3700.00
2023-05-23T04:35:06.680Z,3828.00
2023-05-23T04:36:06.685Z,3920.00
2023-05-23T04:37:06.667Z,4004.00
2023-05-23T04:38:06.657Z,4136.00
2023-05-23T04:39:06.634Z,4176.00
2023-05-23T04:40:06.640Z,4348.00
2023-05-23T04:41:06.664Z,4476.00
2023-05-23T04:42:06.596Z,4544.00
2023-05-23T04:43:06.584Z,4660.00
2023-05-23T04:44:06.606Z,4820.00
2023-05-23T04:45:06.541Z,4972.00
2023-05-23T04:46:06.542Z,5028.00
2023-05-23T04:47:06.591Z,5100.00
2023-05-23T04:48:06.595Z,5192.00
2023-05-23T04:49:06.033Z,5236.00
2023-05-23T04:50:06.518Z,5336.00
2023-05-23T04:51:06.480Z,5560.00
2023-05-23T04:52:06.456Z,5724.00
2023-05-23T04:53:06.429Z,5864.00
2023-05-23T04:54:06.453Z,6092.00
2023-05-23T04:55:05.929Z,6204.00
2023-05-23T04:56:06.399Z,6292.00
2023-05-23T04:57:06.399Z,6392.00
2023-05-23T04:58:06.368Z,6448.00
2023-05-23T04:59:06.362Z,6684.00
2023-05-23T05:00:06.357Z,6812.00
2023-05-23T05:01:06.382Z,7068.00
2023-05-23T05:02:06.300Z,7008.00
2023-05-23T05:03:06.348Z,7116.00
2023-05-23T05:04:06.301Z,7284.00
2023-05-23T05:05:06.276Z,7432.00
2023-05-23T05:06:06.239Z,7480.00
2023-05-23T05:07:06.248Z,7652.00
2023-05-23T05:08:06.228Z,7936.00
2023-05-23T05:09:06.210Z,8260.00
2023-05-23T05:10:06.221Z,8508.00
2023-05-23T05:11:06.182Z,8936.00
2023-05-23T05:12:06.179Z,8964.00
2023-05-23T05:13:06.162Z,9424.00
2023-05-23T05:14:06.157Z,8936.00
2023-05-23T05:15:06.134Z,9212.00
2023-05-23T05:16:06.117Z,9184.00
2023-05-23T05:17:06.148Z,9012.00
2023-05-23T05:18:06.108Z,8800.00
2023-05-23T05:19:06.126Z,8364.00
2023-05-23T05:20:06.073Z,7768.00
2023-05-23T05:21:06.047Z,7272.00
2023-05-23T05:22:06.029Z,7108.00
2023-05-23T05:23:06.003Z,7092.00
2023-05-23T05:24:06.008Z,7412.00
2023-05-23T05:25:05.993Z,7780.00
2023-05-23T05:26:05.964Z,8552.00
2023-05-23T05:27:05.952Z,8728.00
2023-05-23T05:28:05.993Z,8536.00
2023-05-23T05:29:06.008Z,8508.00
2023-05-23T05:30:05.927Z,8140.00
2023-05-23T05:31:05.944Z,7796.00
2023-05-23T05:32:05.879Z,8100.00
2023-05-23T05:33:05.899Z,8404.00
2023-05-23T05:34:05.401Z,8428.00
2023-05-23T05:35:05.871Z,8144.00
2023-05-23T05:36:05.996Z,8164.00
2023-05-23T05:37:05.836Z,7756.00
2023-05-23T05:38:05.832Z,7264.00
2023-05-23T05:39:05.817Z,7176.00
2023-05-23T05:40:05.805Z,7712.00
2023-05-23T05:41:08.033Z,7992.00
2023-05-23T05:42:05.762Z,7996.00
2023-05-23T05:43:05.750Z,7960.00
2023-05-23T05:44:05.748Z,7848.00
2023-05-23T05:45:05.813Z,7800.00
2023-05-23T05:46:05.767Z,8248.00
2023-05-23T05:47:05.702Z,8824.00
2023-05-23T05:48:05.777Z,9192.00
2023-05-23T05:49:05.694Z,9528.00
2023-05-23T05:50:05.647Z,9824.00
2023-05-23T05:51:05.645Z,10072.00
2023-05-23T05:52:05.640Z,9912.00
2023-05-23T05:53:05.627Z,9640.00
2023-05-23T05:54:05.600Z,9092.00
2023-05-23T05:55:05.567Z,8804.00
2023-05-23T05:56:05.582Z,8912.00
2023-05-23T05:57:05.578Z,9124.00
2023-05-23T05:58:05.539Z,9292.00
2023-05-23T05:59:05.533Z,10000.00
2023-05-23T06:00:05.518Z,11128.00
2023-05-23T06:01:05.520Z,11808.00
2023-05-23T06:02:05.513Z,11676.00
2023-05-23T06:03:05.581Z,11416.00
2023-05-23T06:04:05.594Z,11512.00
2023-05-23T06:05:05.477Z,11492.00
2023-05-23T06:06:05.446Z,11592.00
2023-05-23T06:07:05.417Z,12608.00
2023-05-23T06:08:05.416Z,14688.00
2023-05-23T06:09:05.397Z,16040.00
2023-05-23T06:10:05.396Z,16992.00
2023-05-23T06:11:05.376Z,17632.00
2023-05-23T06:12:05.347Z,18432.00
2023-05-23T06:13:05.335Z,19008.00
2023-05-23T06:14:05.314Z,18624.00
2023-05-23T06:15:05.328Z,17120.00
2023-05-23T06:16:05.349Z,15972.00
2023-05-23T06:17:04.788Z,15744.00
2023-05-23T06:18:05.358Z,16028.00
2023-05-23T06:19:05.283Z,16444.00
2023-05-23T06:20:05.256Z,18048.00
2023-05-23T06:21:05.228Z,19328.00
2023-05-23T06:22:05.211Z,22144.00
2023-05-23T06:23:05.203Z,17792.00
2023-05-23T06:24:05.191Z,19616.00
2023-05-23T06:25:05.191Z,19040.00
2023-05-23T06:26:05.158Z,19104.00
2023-05-23T06:27:05.142Z,20864.00
2023-05-23T06:28:05.159Z,20640.00
2023-05-23T06:29:05.113Z,18304.00
2023-05-23T06:30:05.121Z,17792.00
2023-05-23T06:31:05.110Z,15864.00
2023-05-23T06:32:05.142Z,16200.00
2023-05-23T06:33:05.166Z,17504.00
2023-05-23T06:34:05.050Z,18752.00
2023-05-23T06:35:04.551Z,16324.00
2023-05-23T06:36:05.023Z,15544.00
2023-05-23T06:37:05.012Z,17664.00
2023-05-23T06:38:05.002Z,18880.00
2023-05-23T06:39:04.991Z,18240.00
2023-05-23T06:40:04.979Z,18944.00
2023-05-23T06:41:04.956Z,20032.00
2023-05-23T06:42:04.962Z,19360.00
2023-05-23T06:43:04.919Z,20544.00
2023-05-23T06:44:04.910Z,20032.00
2023-05-23T06:45:04.894Z,19392.00
2023-05-23T06:46:04.975Z,19008.00
2023-05-23T06:47:04.863Z,19104.00
2023-05-23T06:48:04.947Z,18400.00
2023-05-23T06:49:14.271Z,16768.00
2023-05-23T06:50:05.864Z,16124.00
2023-05-23T06:51:04.817Z,15184.00
2023-05-23T06:52:04.798Z,13312.00
2023-05-23T06:53:04.790Z,13116.00
2023-05-23T06:54:04.785Z,13356.00
2023-05-23T06:55:04.769Z,13436.00
2023-05-23T06:56:04.753Z,13564.00
2023-05-23T06:57:04.731Z,13160.00
2023-05-23T06:58:04.557Z,12476.00
2023-05-23T06:59:04.704Z,12504.00
2023-05-23T07:00:04.682Z,13636.00
2023-05-23T07:01:04.705Z,13848.00
2023-05-23T07:02:04.664Z,13208.00
2023-05-23T07:03:04.762Z,12680.00
2023-05-23T07:04:04.632Z,12212.00
2023-05-23T07:05:04.658Z,12800.00
2023-05-23T07:06:04.604Z,13652.00
2023-05-23T07:07:04.617Z,13540.00
2023-05-23T07:08:04.590Z,12568.00
2023-05-23T07:09:04.581Z,12416.00
2023-05-23T07:10:04.541Z,13684.00
2023-05-23T07:11:04.546Z,16736.00
2023-05-23T07:12:04.541Z,20224.00
2023-05-23T07:13:04.502Z,22368.00
2023-05-23T07:14:04.520Z,20768.00
2023-05-23T07:15:04.477Z,19200.00
2023-05-23T07:16:04.470Z,17504.00
2023-05-23T07:17:04.508Z,17696.00
2023-05-23T07:18:04.553Z,18240.00
2023-05-23T07:19:04.446Z,18848.00
2023-05-23T07:20:04.409Z,20896.00
2023-05-23T07:21:04.410Z,22880.00
2023-05-23T07:22:04.423Z,23904.00
2023-05-23T07:23:04.367Z,24288.00
2023-05-23T07:24:04.349Z,22880.00
2023-05-23T07:25:04.330Z,21120.00
2023-05-23T07:26:04.333Z,18752.00
2023-05-23T07:27:04.314Z,18112.00
2023-05-23T07:28:04.300Z,19392.00
2023-05-23T07:29:04.284Z,22016.00
2023-05-23T07:30:04.265Z,23776.00
2023-05-23T07:31:04.347Z,22720.00
2023-05-23T07:32:04.256Z,19872.00
2023-05-23T07:33:04.281Z,19168.00
2023-05-23T07:34:04.225Z,18752.00
2023-05-23T07:35:04.205Z,18048.00
2023-05-23T07:36:04.210Z,17856.00
2023-05-23T07:37:04.182Z,18848.00
2023-05-23T07:38:04.300Z,19200.00
2023-05-23T07:39:04.149Z,18880.00
2023-05-23T07:40:04.143Z,18848.00
2023-05-23T07:41:11.661Z,18848.00
2023-05-23T07:42:05.096Z,19552.00
2023-05-23T07:43:04.087Z,20256.00
2023-05-23T07:44:04.113Z,20896.00
2023-05-23T07:45:04.092Z,20544.00
2023-05-23T07:46:04.076Z,20160.00
2023-05-23T07:47:04.090Z,20416.00
2023-05-23T07:48:04.049Z,20864.00
2023-05-23T07:49:03.990Z,20992.00
2023-05-23T07:50:04.003Z,19936.00
2023-05-23T07:51:04.035Z,18816.00
2023-05-23T07:52:03.959Z,17696.00
2023-05-23T07:53:03.973Z,16268.00
2023-05-23T07:54:03.934Z,15452.00
2023-05-23T07:55:03.939Z,15116.00
2023-05-23T07:56:03.913Z,15716.00
2023-05-23T07:57:03.897Z,16992.00
2023-05-23T07:58:03.868Z,18368.00
2023-05-23T07:59:03.873Z,19296.00
2023-05-23T08:00:03.854Z,20800.00
2023-05-23T08:01:03.837Z,22464.00
2023-05-23T08:02:03.836Z,23424.00
2023-05-23T08:03:03.872Z,24576.00
2023-05-23T08:04:03.944Z,24544.00
2023-05-23T08:05:03.789Z,23808.00
2023-05-23T08:06:03.775Z,22912.00
2023-05-23T08:07:05.830Z,22400.00
2023-05-23T08:08:03.744Z,21600.00
2023-05-23T08:09:03.753Z,20736.00
2023-05-23T08:10:03.259Z,20096.00
2023-05-23T08:11:03.798Z,20224.00
2023-05-23T08:12:03.685Z,20416.00
2023-05-23T08:13:06.049Z,20576.00
2023-05-23T08:14:03.697Z,20224.00
2023-05-23T08:15:03.677Z,20448.00
2023-05-23T08:16:04.370Z,33184.00
2023-05-23T08:17:03.721Z,21248.00
2023-05-23T08:18:03.758Z,21568.00
2023-05-23T08:19:03.231Z,22176.00
2023-05-23T08:20:03.580Z,22912.00
2023-05-23T08:21:03.170Z,24256.00
2023-05-23T08:22:01.666Z,26432.00
2023-05-23T08:23:03.555Z,27808.00
2023-05-23T08:24:03.554Z,26848.00
2023-05-23T08:25:03.518Z,27424.00
2023-05-23T08:26:03.494Z,29440.00
2023-05-23T08:27:03.497Z,32704.00
2023-05-23T08:28:03.536Z,34176.00
2023-05-23T08:29:03.456Z,35744.00
2023-05-23T08:30:03.462Z,33504.00
2023-05-23T08:31:03.434Z,47712.00
2023-05-23T08:32:03.463Z,33184.00
2023-05-23T08:33:03.540Z,31232.00
2023-05-23T08:34:03.420Z,30144.00
2023-05-23T08:35:03.402Z,28192.00
2023-05-23T08:36:03.372Z,26496.00
2023-05-23T08:37:03.365Z,25216.00
2023-05-23T08:38:03.334Z,24288.00
2023-05-23T08:39:03.322Z,24288.00
2023-05-23T08:40:03.319Z,24288.00
2023-05-23T08:41:03.302Z,23200.00
2023-05-23T08:42:03.326Z,22400.00
2023-05-23T08:43:03.320Z,23328.00
2023-05-23T08:44:03.239Z,26624.00
2023-05-23T08:45:03.242Z,30432.00
2023-05-23T08:46:03.260Z,33184.00
2023-05-23T08:47:03.208Z,33664.00
2023-05-23T08:48:03.208Z,33632.00
2023-05-23T08:49:02.734Z,32896.00
2023-05-23T08:50:03.161Z,32000.00
2023-05-23T08:51:03.172Z,32352.00
2023-05-23T08:52:03.128Z,34432.00
2023-05-23T08:53:03.173Z,35456.00
2023-05-23T08:54:03.115Z,32160.00
2023-05-23T08:55:03.089Z,30944.00
2023-05-23T08:56:03.107Z,28832.00
2023-05-23T08:57:03.066Z,28480.00
2023-05-23T08:58:03.045Z,28480.00
2023-05-23T08:59:03.067Z,27840.00
2023-05-23T09:00:04.241Z,26976.00
2023-05-23T09:01:03.024Z,27104.00
2023-05-23T09:02:03.046Z,27840.00
2023-05-23T09:03:03.044Z,28320.00
2023-05-23T09:04:03.000Z,28320.00
2023-05-23T09:05:03.011Z,27520.00
2023-05-23T09:06:02.979Z,27808.00
2023-05-23T09:07:02.953Z,27680.00
2023-05-23T09:08:01.044Z,27200.00
2023-05-23T09:09:02.910Z,27328.00
2023-05-23T09:10:02.911Z,28768.00
2023-05-23T09:11:02.921Z,29536.00
2023-05-23T09:12:02.872Z,36608.00
2023-05-23T09:13:02.862Z,58080.00
2023-05-23T09:14:02.849Z,54816.00
2023-05-23T09:15:01.885Z,54240.00
2023-05-23T09:16:02.864Z,53536.00
2023-05-23T09:17:04.561Z,43680.00
2023-05-23T09:18:02.844Z,34720.00
2023-05-23T09:19:02.782Z,34944.00
2023-05-23T09:20:02.778Z,39072.00
2023-05-23T09:21:02.739Z,43712.00
2023-05-23T09:22:02.806Z,48640.00
2023-05-23T09:23:03.797Z,75872.00
2023-05-23T09:24:02.714Z,62080.00
2023-05-23T09:25:02.722Z,53184.00
2023-05-23T09:26:02.688Z,46752.00
2023-05-23T09:27:02.661Z,42176.00
2023-05-23T09:28:02.670Z,41408.00
2023-05-23T09:29:02.645Z,54560.00
2023-05-23T09:30:02.613Z,39232.00
2023-05-23T09:31:02.605Z,37216.00
2023-05-23T09:32:02.636Z,37760.00
2023-05-23T09:33:05.528Z,37632.00
2023-05-23T09:34:02.708Z,36288.00
2023-05-23T09:35:02.643Z,33312.00
2023-05-23T09:36:02.554Z,30688.00
2023-05-23T09:37:02.531Z,29504.00
2023-05-23T09:38:02.537Z,29952.00
2023-05-23T09:39:03.282Z,31424.00
2023-05-23T09:40:02.534Z,33248.00
2023-05-23T09:41:02.483Z,37312.00
2023-05-23T09:42:02.495Z,37984.00
2023-05-23T09:43:02.467Z,33792.00
2023-05-23T09:44:02.448Z,30880.00
2023-05-23T09:45:04.134Z,29504.00
2023-05-23T09:46:02.405Z,28736.00
2023-05-23T09:47:02.438Z,28384.00
2023-05-23T09:48:02.455Z,28992.00
2023-05-23T09:49:02.417Z,29440.00
2023-05-23T09:50:02.351Z,28896.00
2023-05-23T09:51:03.576Z,26976.00
2023-05-23T09:52:02.341Z,25184.00
2023-05-23T09:53:02.363Z,24480.00
2023-05-23T09:54:02.306Z,24800.00
2023-05-23T09:55:02.276Z,25184.00
2023-05-23T09:56:02.261Z,25728.00
2023-05-23T09:57:02.328Z,26688.00
2023-05-23T09:58:02.255Z,26848.00
2023-05-23T09:59:02.254Z,25216.00
2023-05-23T10:00:02.278Z,23168.00
2023-05-23T10:01:02.260Z,21120.00
2023-05-23T10:02:02.209Z,19232.00
2023-05-23T10:03:02.173Z,17664.00
2023-05-23T10:04:02.188Z,16768.00
2023-05-23T10:05:02.150Z,15916.00
2023-05-23T10:06:02.158Z,15456.00
2023-05-23T10:07:02.147Z,15484.00
2023-05-23T10:08:02.105Z,15672.00
2023-05-23T10:09:02.095Z,15616.00
2023-05-23T10:10:02.084Z,15496.00
2023-05-23T10:11:02.077Z,15344.00
2023-05-23T10:12:02.056Z,14844.00
2023-05-23T10:13:02.043Z,14080.00
2023-05-23T10:14:02.017Z,13404.00
2023-05-23T10:15:02.009Z,13136.00
2023-05-23T10:16:02.003Z,13232.00
2023-05-23T10:17:02.035Z,13728.00
2023-05-23T10:18:01.999Z,14256.00
2023-05-23T10:19:01.998Z,14744.00
2023-05-23T10:20:01.953Z,15104.00
2023-05-23T10:21:01.936Z,15096.00
2023-05-23T10:22:01.925Z,14632.00
2023-05-23T10:23:01.906Z,13800.00
2023-05-23T10:24:02.451Z,13292.00
2023-05-23T10:25:01.903Z,13452.00
2023-05-23T10:26:01.848Z,14224.00
2023-05-23T10:27:01.838Z,15276.00
2023-05-23T10:28:04.144Z,16608.00
2023-05-23T10:29:01.827Z,17600.00
2023-05-23T10:30:01.846Z,17920.00
2023-05-23T10:31:01.803Z,17696.00
2023-05-23T10:32:01.769Z,17376.00
2023-05-23T10:33:01.826Z,16992.00
2023-05-23T10:34:01.754Z,16768.00
2023-05-23T10:35:01.742Z,17152.00
2023-05-23T10:36:01.737Z,18304.00
2023-05-23T10:37:01.684Z,19872.00
2023-05-23T10:38:01.679Z,20416.00
2023-05-23T10:39:01.682Z,20096.00
2023-05-23T10:40:01.712Z,20064.00
2023-05-23T10:41:01.645Z,20672.00
2023-05-23T10:42:01.619Z,21152.00
2023-05-23T10:43:01.614Z,20800.00
2023-05-23T10:44:01.621Z,19968.00
2023-05-23T10:45:01.618Z,19616.00
2023-05-23T10:46:01.665Z,20064.00
2023-05-23T10:47:01.622Z,21408.00
2023-05-23T10:48:01.585Z,22944.00
2023-05-23T10:49:01.548Z,24288.00
2023-05-23T10:50:01.509Z,25472.00
2023-05-23T10:51:01.490Z,26560.00
2023-05-23T10:52:01.473Z,27488.00
2023-05-23T10:53:01.502Z,28448.00
2023-05-23T10:54:01.452Z,29472.00
2023-05-23T10:55:01.439Z,30752.00
2023-05-23T10:56:01.432Z,32384.00
2023-05-23T10:57:01.450Z,34368.00
2023-05-23T10:58:01.426Z,36192.00
2023-05-23T10:59:01.385Z,36736.00
2023-05-23T11:00:01.369Z,35744.00
2023-05-23T11:01:01.348Z,33536.00
2023-05-23T11:03:01.393Z,29376.00
2023-05-23T11:04:01.395Z,28928.00
2023-05-23T11:05:01.305Z,29536.00
2023-05-23T11:06:01.288Z,30304.00
2023-05-23T11:07:01.305Z,31328.00
2023-05-23T11:08:01.262Z,32256.00
2023-05-23T11:09:01.261Z,32768.00
2023-05-23T11:10:01.236Z,33184.00
2023-05-23T11:11:01.247Z,33344.00
2023-05-23T11:12:01.235Z,33024.00
2023-05-23T11:13:01.205Z,32992.00
2023-05-23T11:14:01.177Z,33024.00
2023-05-23T11:15:01.174Z,32992.00
2023-05-23T11:16:01.234Z,33312.00
2023-05-23T11:17:01.154Z,33824.00
2023-05-23T11:18:01.176Z,34432.00
2023-05-23T11:19:01.153Z,34976.00
2023-05-23T11:20:01.102Z,35456.00
2023-05-23T11:21:01.102Z,35264.00
2023-05-23T11:22:01.097Z,34880.00
2023-05-23T11:23:01.058Z,34656.00
2023-05-23T11:24:01.060Z,34624.00
2023-05-23T11:25:01.110Z,34496.00
2023-05-23T11:26:01.031Z,34304.00
2023-05-23T11:27:01.018Z,33536.00
2023-05-23T11:28:00.994Z,31872.00
2023-05-23T11:29:01.012Z,30592.00
2023-05-23T11:30:00.985Z,29920.00
2023-05-23T11:31:00.954Z,29376.00
2023-05-23T11:32:00.979Z,29184.00
2023-05-23T11:33:01.001Z,29216.00
2023-05-23T11:34:00.925Z,29920.00
2023-05-23T11:35:00.910Z,30656.00
2023-05-23T11:36:00.896Z,31424.00
2023-05-23T11:37:00.868Z,31296.00
2023-05-23T11:38:00.865Z,30464.00
2023-05-23T11:39:00.839Z,29472.00
2023-05-23T11:40:00.867Z,28320.00
2023-05-23T11:41:00.827Z,27296.00
2023-05-23T11:42:00.822Z,26336.00
2023-05-23T11:43:00.806Z,25824.00
2023-05-23T11:44:00.785Z,26016.00
2023-05-23T11:45:00.786Z,26848.00
2023-05-23T11:46:00.805Z,28064.00
2023-05-23T11:47:00.764Z,29280.00
2023-05-23T11:48:00.780Z,30304.00
2023-05-23T11:49:00.741Z,31424.00
2023-05-23T11:50:00.709Z,32736.00
2023-05-23T11:51:00.693Z,34016.00
2023-05-23T11:52:00.684Z,35136.00
2023-05-23T11:53:00.651Z,36000.00
2023-05-23T11:54:00.651Z,36800.00
2023-05-23T11:56:00.781Z,37664.00
2023-05-23T11:57:00.594Z,37280.00
2023-05-23T11:58:00.589Z,36512.00
2023-05-23T11:59:00.584Z,35904.00
2023-05-23T12:00:00.591Z,35584.00
2023-05-23T12:01:00.545Z,35328.00
2023-05-23T12:02:00.545Z,35264.00
2023-05-23T12:03:00.602Z,35328.00
2023-05-23T12:04:00.649Z,35648.00
2023-05-23T12:05:00.561Z,35648.00
2023-05-23T12:06:00.473Z,35456.00
2023-05-23T12:07:00.490Z,35232.00
2023-05-23T12:08:00.469Z,34368.00
2023-05-23T12:09:00.435Z,33280.00
2023-05-23T12:10:00.414Z,32192.00
2023-05-23T12:11:00.401Z,31840.00
2023-05-23T12:12:00.385Z,32448.00
2023-05-23T12:13:00.389Z,33344.00
2023-05-23T12:14:00.376Z,34432.00
2023-05-23T12:15:00.361Z,35520.00